createdAt,value
2023-02-06T00:01:06.804Z,8.90
2023-02-06T00:02:39.910Z,11.52
2023-02-06T00:04:13.140Z,7.75
2023-02-06T00:05:55.290Z,10.20
2023-02-06T00:07:28.367Z,9.55
2023-02-06T00:09:01.704Z,10.25
2023-02-06T00:10:35.037Z,8.75
2023-02-06T00:12:08.471Z,8.95
2023-02-06T00:13:43.390Z,9.70
2023-02-06T00:15:16.487Z,8.20
2023-02-06T00:16:49.545Z,11.10
2023-02-06T00:18:22.887Z,9.02
2023-02-06T00:19:55.963Z,11.95
2023-02-06T00:21:30.286Z,9.60
2023-02-06T00:23:03.306Z,11.00
2023-02-06T00:24:36.359Z,10.32
2023-02-06T00:26:08.889Z,14.20
2023-02-06T00:27:43.536Z,11.25
2023-02-06T00:29:17.976Z,9.20
2023-02-06T00:30:53.155Z,11.75
2023-02-06T00:32:26.520Z,10.98
2023-02-06T00:34:00.007Z,12.77
2023-02-06T00:35:33.572Z,10.93
2023-02-06T00:37:07.404Z,12.80
2023-02-06T00:38:39.822Z,12.02
2023-02-06T00:40:13.814Z,12.38
2023-02-06T00:41:47.191Z,10.52
2023-02-06T00:43:19.572Z,12.40
2023-02-06T00:44:54.328Z,13.30
2023-02-06T00:46:27.808Z,13.38
2023-02-06T00:48:01.287Z,10.50
2023-02-06T00:49:34.706Z,11.73
2023-02-06T00:51:08.145Z,14.63
2023-02-06T00:52:43.595Z,12.05
2023-02-06T00:54:17.006Z,11.40
2023-02-06T00:55:50.516Z,11.25
2023-02-06T00:57:23.907Z,10.88
2023-02-06T00:58:57.383Z,11.10
2023-02-06T01:00:32.111Z,12.50
2023-02-06T01:02:05.540Z,10.35
2023-02-06T01:03:37.990Z,10.52
2023-02-06T01:05:11.383Z,11.35
2023-02-06T01:06:44.755Z,9.65
2023-02-06T01:08:18.176Z,9.00
2023-02-06T01:09:51.571Z,11.18
2023-02-06T01:11:27.537Z,10.32
2023-02-06T01:13:01.018Z,11.07
2023-02-06T01:14:34.448Z,10.45
2023-02-06T01:16:10.570Z,10.45
2023-02-06T01:17:43.969Z,10.10
2023-02-06T01:19:18.572Z,10.63
2023-02-06T01:20:53.259Z,9.63
2023-02-06T01:22:25.616Z,10.30
2023-02-06T01:23:59.024Z,9.23
2023-02-06T01:25:31.379Z,10.93
2023-02-06T01:27:04.909Z,9.90
2023-02-06T01:28:38.380Z,9.68
2023-02-06T01:30:12.646Z,11.02
2023-02-06T01:31:47.448Z,11.65
2023-02-06T01:33:19.851Z,9.55
2023-02-06T01:34:53.200Z,11.93
2023-02-06T01:36:26.778Z,10.50
2023-02-06T01:37:59.301Z,10.52
2023-02-06T01:39:33.111Z,9.40
2023-02-06T01:41:07.282Z,11.02
2023-02-06T01:42:41.593Z,9.00
2023-02-06T01:44:16.603Z,8.13
2023-02-06T01:45:51.356Z,8.68
2023-02-06T01:47:26.115Z,9.85
2023-02-06T01:49:01.775Z,8.45
2023-02-06T01:50:36.057Z,13.23
2023-02-06T01:52:13.666Z,8.70
2023-02-06T01:53:50.118Z,10.68
2023-02-06T01:55:23.648Z,11.18
2023-02-06T01:56:59.635Z,9.82
2023-02-06T01:58:37.466Z,8.32
2023-02-06T02:00:12.025Z,10.07
2023-02-06T02:01:45.796Z,9.10
2023-02-06T02:03:20.555Z,9.95
2023-02-06T02:04:54.052Z,7.65
2023-02-06T02:06:28.266Z,9.77
2023-02-06T02:08:04.759Z,8.98
2023-02-06T02:09:41.403Z,9.32
2023-02-06T02:11:17.794Z,7.65
2023-02-06T02:12:51.234Z,8.77
2023-02-06T02:14:24.778Z,9.27
2023-02-06T02:15:59.618Z,9.55
2023-02-06T02:17:38.235Z,10.32
2023-02-06T02:19:27.224Z,8.48
2023-02-06T02:21:15.576Z,9.00
2023-02-06T02:22:54.005Z,8.48
2023-02-06T02:24:33.084Z,10.05
2023-02-06T02:26:14.854Z,10.73
2023-02-06T02:28:01.413Z,9.15
2023-02-06T02:29:52.961Z,9.32
2023-02-06T02:31:39.242Z,9.57
2023-02-06T02:33:28.236Z,9.70
2023-02-06T02:35:12.564Z,8.35
2023-02-06T02:36:49.302Z,8.77
2023-02-06T02:38:30.449Z,9.02
2023-02-06T02:40:08.619Z,9.15
2023-02-06T02:41:44.782Z,10.30
2023-02-06T02:43:23.323Z,8.55
2023-02-06T02:44:58.276Z,9.27
2023-02-06T02:46:33.735Z,8.98
2023-02-06T02:48:09.347Z,9.38
2023-02-06T02:49:43.373Z,10.05
2023-02-06T02:51:18.417Z,8.95
2023-02-06T02:52:51.755Z,10.02
2023-02-06T02:54:25.350Z,10.27
2023-02-06T02:55:59.907Z,10.43
2023-02-06T02:57:36.009Z,14.65
2023-02-06T02:59:11.667Z,11.20
2023-02-06T03:00:45.979Z,11.45
2023-02-06T03:02:21.508Z,12.75
2023-02-06T03:03:56.113Z,10.05
2023-02-06T03:05:29.634Z,14.05
2023-02-06T03:07:09.908Z,9.32
2023-02-06T03:08:47.464Z,14.77
2023-02-06T03:10:24.173Z,12.82
2023-02-06T03:12:00.906Z,12.35
2023-02-06T03:13:38.780Z,10.18
2023-02-06T03:15:16.412Z,13.15
2023-02-06T03:16:52.432Z,11.20
2023-02-06T03:18:30.156Z,13.90
2023-02-06T03:20:05.109Z,11.38
2023-02-06T03:21:38.790Z,14.27
2023-02-06T03:23:15.248Z,11.23
2023-02-06T03:24:49.202Z,12.43
2023-02-06T03:26:24.281Z,13.35
2023-02-06T03:27:58.965Z,14.32
2023-02-06T03:29:34.294Z,13.13
2023-02-06T03:31:10.962Z,14.40
2023-02-06T03:32:44.806Z,13.35
2023-02-06T03:34:21.639Z,12.15
2023-02-06T03:35:56.497Z,12.77
2023-02-06T03:37:30.588Z,13.27
2023-02-06T03:39:04.664Z,10.20
2023-02-06T03:40:38.250Z,13.00
2023-02-06T03:42:12.106Z,13.60
2023-02-06T03:43:47.762Z,12.30
2023-02-06T03:45:23.812Z,12.52
2023-02-06T03:46:58.270Z,15.77
2023-02-06T03:48:32.968Z,13.25
2023-02-06T03:50:08.946Z,13.38
2023-02-06T03:51:43.971Z,12.10
2023-02-06T03:53:19.253Z,12.20
2023-02-06T03:54:56.631Z,13.07
2023-02-06T03:56:32.052Z,14.20
2023-02-06T03:58:06.984Z,10.57
2023-02-06T03:59:39.434Z,12.73
2023-02-06T04:01:13.553Z,11.50
2023-02-06T04:02:47.508Z,10.70
2023-02-06T04:04:21.998Z,12.80
2023-02-06T04:05:55.501Z,12.25
2023-02-06T04:07:30.174Z,10.80
2023-02-06T04:09:03.613Z,12.45
2023-02-06T04:10:38.297Z,12.98
2023-02-06T04:12:11.766Z,10.23
2023-02-06T04:13:45.131Z,10.38
2023-02-06T04:15:18.537Z,13.95
2023-02-06T04:16:51.980Z,12.00
2023-02-06T04:18:25.382Z,12.55
2023-02-06T04:19:58.755Z,11.00
2023-02-06T04:21:32.179Z,12.27
2023-02-06T04:23:05.528Z,11.82
2023-02-06T04:24:40.230Z,13.35
2023-02-06T04:26:14.949Z,12.00
2023-02-06T04:27:48.350Z,13.70
2023-02-06T04:29:21.723Z,14.05
2023-02-06T04:30:55.260Z,13.30
2023-02-06T04:32:27.664Z,13.60
2023-02-06T04:34:01.068Z,13.63
2023-02-06T04:35:34.689Z,12.80
2023-02-06T04:37:08.358Z,16.90
2023-02-06T04:38:41.737Z,13.70
2023-02-06T04:40:15.124Z,12.50
2023-02-06T04:41:49.846Z,13.35
2023-02-06T04:43:23.294Z,14.70
2023-02-06T04:44:56.661Z,11.10
2023-02-06T04:46:29.112Z,14.73
2023-02-06T04:48:02.514Z,14.07
2023-02-06T04:49:34.892Z,13.13
2023-02-06T04:51:08.269Z,11.80
2023-02-06T04:52:41.667Z,13.63
2023-02-06T04:54:17.308Z,13.60
2023-02-06T04:55:50.747Z,10.65
2023-02-06T04:57:24.524Z,11.13
2023-02-06T04:58:57.952Z,11.40
2023-02-06T05:00:31.380Z,10.50
2023-02-06T05:02:04.835Z,12.10
2023-02-06T05:03:38.305Z,13.57
2023-02-06T05:05:11.750Z,15.15
2023-02-06T05:06:44.084Z,12.93
2023-02-06T05:08:17.501Z,14.30
2023-02-06T05:09:50.843Z,11.70
2023-02-06T05:11:24.189Z,12.93
2023-02-06T05:12:58.944Z,15.60
2023-02-06T05:14:32.328Z,14.88
2023-02-06T05:16:09.149Z,14.82
2023-02-06T05:17:42.621Z,14.50
2023-02-06T05:19:16.000Z,15.27
2023-02-06T05:20:49.378Z,14.50
2023-02-06T05:22:22.738Z,14.63
2023-02-06T05:23:55.308Z,14.88
2023-02-06T05:25:28.683Z,14.77
2023-02-06T05:27:01.068Z,15.38
2023-02-06T05:28:35.770Z,17.75
2023-02-06T05:30:09.745Z,13.60
2023-02-06T05:31:43.208Z,17.63
2023-02-06T05:33:16.618Z,15.48
2023-02-06T05:34:49.969Z,15.90
2023-02-06T05:36:23.910Z,15.88
2023-02-06T05:37:57.251Z,21.02
2023-02-06T05:39:30.731Z,16.50
2023-02-06T05:41:03.394Z,14.35
2023-02-06T05:42:36.812Z,15.70
2023-02-06T05:44:11.821Z,16.70
2023-02-06T05:45:45.197Z,13.13
2023-02-06T05:47:18.677Z,13.60
2023-02-06T05:48:52.173Z,12.18
2023-02-06T05:50:25.560Z,15.35
2023-02-06T05:51:59.852Z,15.27
2023-02-06T05:53:33.247Z,15.88
2023-02-06T05:55:06.861Z,15.95
2023-02-06T05:56:40.276Z,13.18
2023-02-06T05:58:13.891Z,14.82
2023-02-06T05:59:48.634Z,14.23
2023-02-06T06:01:22.164Z,15.02
2023-02-06T06:02:55.521Z,13.70
2023-02-06T06:04:29.114Z,14.55
2023-02-06T06:06:02.545Z,17.17
2023-02-06T06:07:35.957Z,14.00
2023-02-06T06:09:09.374Z,14.68
2023-02-06T06:10:42.804Z,14.20
2023-02-06T06:12:16.193Z,15.57
2023-02-06T06:13:49.660Z,14.52
2023-02-06T06:15:24.438Z,15.18
2023-02-06T06:16:57.816Z,13.70
2023-02-06T06:18:30.348Z,16.98
2023-02-06T06:20:03.717Z,14.48
2023-02-06T06:21:37.111Z,13.98
2023-02-06T06:23:10.520Z,14.77
2023-02-06T06:24:43.880Z,15.10
2023-02-06T06:26:17.458Z,22.63
2023-02-06T06:27:50.857Z,18.50
2023-02-06T06:29:24.272Z,18.75
2023-02-06T06:31:03.905Z,17.85
2023-02-06T06:32:38.022Z,18.60
2023-02-06T06:34:11.388Z,18.20
2023-02-06T06:35:44.843Z,20.17
2023-02-06T06:37:18.246Z,19.13
2023-02-06T06:38:51.660Z,19.52
2023-02-06T06:40:25.060Z,20.85
2023-02-06T06:41:58.482Z,19.95
2023-02-06T06:43:32.254Z,21.92
2023-02-06T06:45:06.176Z,18.38
2023-02-06T06:46:40.917Z,15.20
2023-02-06T06:48:14.306Z,15.07
2023-02-06T06:49:47.655Z,17.08
2023-02-06T06:51:22.002Z,15.68
2023-02-06T06:52:55.471Z,13.82
2023-02-06T06:54:28.833Z,14.48
2023-02-06T06:56:05.263Z,12.77
2023-02-06T06:57:38.712Z,16.73
2023-02-06T06:59:12.067Z,18.02
2023-02-06T07:00:45.496Z,14.02
2023-02-06T07:02:20.247Z,17.30
2023-02-06T07:03:53.687Z,16.35
2023-02-06T07:05:27.138Z,14.95
2023-02-06T07:07:00.664Z,16.05
2023-02-06T07:08:34.396Z,13.93
2023-02-06T07:10:08.466Z,14.57
2023-02-06T07:11:42.970Z,15.30
2023-02-06T07:13:16.517Z,15.18
2023-02-06T07:14:49.897Z,14.00
2023-02-06T07:16:23.336Z,15.00
2023-02-06T07:17:58.085Z,15.02
2023-02-06T07:19:31.503Z,14.98
2023-02-06T07:21:04.904Z,14.07
2023-02-06T07:22:38.311Z,16.85
2023-02-06T07:24:11.710Z,16.73
2023-02-06T07:25:45.102Z,15.38
2023-02-06T07:27:18.481Z,10.95
2023-02-06T07:28:52.664Z,13.73
2023-02-06T07:30:26.273Z,13.73
2023-02-06T07:32:00.046Z,14.05
2023-02-06T07:33:35.698Z,12.77
2023-02-06T07:35:09.427Z,12.48
2023-02-06T07:36:42.986Z,14.13
2023-02-06T07:38:16.393Z,13.07
2023-02-06T07:39:49.787Z,15.63
2023-02-06T07:41:23.266Z,13.02
2023-02-06T07:42:56.730Z,14.00
2023-02-06T07:44:34.076Z,16.58
2023-02-06T07:46:08.051Z,13.95
2023-02-06T07:47:41.588Z,13.95
2023-02-06T07:49:16.418Z,17.70
2023-02-06T07:50:49.847Z,18.25
2023-02-06T07:52:23.333Z,15.93
2023-02-06T07:53:56.854Z,15.73
2023-02-06T07:55:30.357Z,16.58
2023-02-06T07:57:03.798Z,15.10
2023-02-06T07:58:37.158Z,16.08
2023-02-06T08:00:11.077Z,15.93
2023-02-06T08:01:47.198Z,17.08
2023-02-06T08:03:21.049Z,17.65
2023-02-06T08:04:55.785Z,19.17
2023-02-06T08:06:29.343Z,21.48
2023-02-06T08:08:02.890Z,16.73
2023-02-06T08:09:36.431Z,19.65
2023-02-06T08:11:10.721Z,19.17
2023-02-06T08:12:45.002Z,16.30
2023-02-06T08:14:18.415Z,19.65
2023-02-06T08:15:51.881Z,18.92
2023-02-06T08:17:25.255Z,21.70
2023-02-06T08:18:58.704Z,18.70
2023-02-06T08:20:33.425Z,18.50
2023-02-06T08:22:07.114Z,19.73
2023-02-06T08:23:40.780Z,21.20
2023-02-06T08:25:14.204Z,20.02
2023-02-06T08:26:47.598Z,20.15
2023-02-06T08:28:21.178Z,20.90
2023-02-06T08:29:54.546Z,21.25
2023-02-06T08:31:30.007Z,19.40
2023-02-06T08:33:03.442Z,21.27
2023-02-06T08:34:37.143Z,23.05
2023-02-06T08:36:12.588Z,24.50
2023-02-06T08:37:46.133Z,23.58
2023-02-06T08:39:19.545Z,20.83
2023-02-06T08:40:52.920Z,22.73
2023-02-06T08:42:26.289Z,20.60
2023-02-06T08:44:00.520Z,21.27
2023-02-06T08:45:34.162Z,21.58
2023-02-06T08:47:10.367Z,20.27
2023-02-06T08:48:44.223Z,20.75
2023-02-06T08:50:17.958Z,20.88
2023-02-06T08:51:52.952Z,22.83
2023-02-06T08:53:26.335Z,22.15
2023-02-06T08:54:59.721Z,23.42
2023-02-06T08:56:33.459Z,25.85
2023-02-06T08:58:06.853Z,22.50
2023-02-06T08:59:41.605Z,26.77
2023-02-06T09:01:16.706Z,22.45
2023-02-06T09:02:50.443Z,24.48
2023-02-06T09:04:23.862Z,23.25
2023-02-06T09:06:09.313Z,23.73
2023-02-06T09:07:44.893Z,22.25
2023-02-06T09:09:18.452Z,25.00
2023-02-06T09:10:51.997Z,24.33
2023-02-06T09:12:25.376Z,23.05
2023-02-06T09:14:00.030Z,23.92
2023-02-06T09:15:33.588Z,22.65
2023-02-06T09:17:07.204Z,22.83
2023-02-06T09:18:41.078Z,20.73
2023-02-06T09:20:14.484Z,24.95
2023-02-06T09:21:47.886Z,19.23
2023-02-06T09:23:22.657Z,22.73
2023-02-06T09:24:56.046Z,19.77
2023-02-06T09:26:30.862Z,21.25
2023-02-06T09:28:04.463Z,20.38
2023-02-06T09:29:38.099Z,20.80
2023-02-06T09:31:12.029Z,19.83
2023-02-06T09:32:46.027Z,19.67
2023-02-06T09:34:19.447Z,19.13
2023-02-06T09:36:02.507Z,20.98
2023-02-06T09:37:36.429Z,20.17
2023-02-06T09:39:11.284Z,21.67
2023-02-06T09:40:44.658Z,21.60
2023-02-06T09:42:20.324Z,21.52
2023-02-06T09:43:54.718Z,24.00
2023-02-06T09:45:30.171Z,24.17
2023-02-06T09:47:06.011Z,23.70
2023-02-06T09:48:41.182Z,23.05
2023-02-06T09:50:21.202Z,21.02
2023-02-06T09:52:13.099Z,22.08
2023-02-06T09:53:52.935Z,22.73
2023-02-06T09:55:31.551Z,18.83
2023-02-06T09:57:08.652Z,22.05
2023-02-06T09:58:43.977Z,20.27
2023-02-06T10:00:27.252Z,21.08
2023-02-06T10:02:09.179Z,23.75
2023-02-06T10:03:49.861Z,18.58
2023-02-06T10:05:25.736Z,18.35
2023-02-06T10:07:02.324Z,19.00
2023-02-06T10:08:39.060Z,21.48
2023-02-06T10:10:14.667Z,17.77
2023-02-06T10:11:51.506Z,19.98
2023-02-06T10:13:27.610Z,19.83
2023-02-06T10:15:03.100Z,19.83
2023-02-06T10:16:39.731Z,19.73
2023-02-06T10:18:15.914Z,26.23
2023-02-06T10:19:52.717Z,23.42
2023-02-06T10:21:29.668Z,21.13
2023-02-06T10:23:07.015Z,19.23
2023-02-06T10:24:43.454Z,20.30
2023-02-06T10:26:18.355Z,20.52
2023-02-06T10:27:56.431Z,23.20
2023-02-06T10:29:31.908Z,18.88
2023-02-06T10:31:11.497Z,23.08
2023-02-06T10:32:47.855Z,20.52
2023-02-06T10:34:33.286Z,21.15
2023-02-06T10:36:11.536Z,19.98
2023-02-06T10:37:56.236Z,19.50
2023-02-06T10:39:42.856Z,20.33
2023-02-06T10:41:19.696Z,23.02
2023-02-06T10:42:58.154Z,20.38
2023-02-06T10:44:34.074Z,20.55
2023-02-06T10:46:13.862Z,21.52
2023-02-06T10:47:49.479Z,25.55
2023-02-06T10:49:30.285Z,25.40
2023-02-06T10:51:09.351Z,22.83
2023-02-06T10:52:43.116Z,23.90
2023-02-06T10:54:20.381Z,22.58
2023-02-06T10:55:56.283Z,23.83
2023-02-06T10:57:30.129Z,25.25
2023-02-06T10:59:08.055Z,24.02
2023-02-06T11:00:42.204Z,23.85
2023-02-06T11:02:20.140Z,27.00
2023-02-06T11:03:57.463Z,26.20
2023-02-06T11:05:32.069Z,23.13
2023-02-06T11:07:08.863Z,26.75
2023-02-06T11:08:43.565Z,26.17
2023-02-06T11:10:18.283Z,25.30
2023-02-06T11:11:51.933Z,25.17
2023-02-06T11:13:27.792Z,26.33
2023-02-06T11:15:04.972Z,24.67
2023-02-06T11:16:38.412Z,24.67
2023-02-06T11:18:14.148Z,25.57
2023-02-06T11:19:48.062Z,25.33
2023-02-06T11:21:36.317Z,23.83
2023-02-06T11:23:17.728Z,27.55
2023-02-06T11:25:00.394Z,29.75
2023-02-06T11:26:33.784Z,29.58
2023-02-06T11:28:12.840Z,30.92
2023-02-06T11:29:47.328Z,31.52
2023-02-06T11:31:23.128Z,32.85
2023-02-06T11:33:04.456Z,30.88
2023-02-06T11:34:43.728Z,27.52
2023-02-06T11:36:23.709Z,30.10
2023-02-06T11:38:05.603Z,29.52
2023-02-06T11:39:40.776Z,26.80
2023-02-06T11:41:18.732Z,28.42
2023-02-06T11:42:53.729Z,27.73
2023-02-06T11:44:27.226Z,26.67
2023-02-06T11:46:15.111Z,26.33
2023-02-06T11:47:50.159Z,29.52
2023-02-06T11:49:25.945Z,28.63
2023-02-06T11:50:59.377Z,31.90
2023-02-06T11:52:35.437Z,27.27
2023-02-06T11:54:20.013Z,27.17
2023-02-06T11:56:00.092Z,28.05
2023-02-06T11:57:34.882Z,26.85
2023-02-06T11:59:09.444Z,27.85
2023-02-06T12:00:44.049Z,25.80
2023-02-06T12:02:27.184Z,26.00
2023-02-06T12:04:02.211Z,29.88
2023-02-06T12:05:37.092Z,27.43
2023-02-06T12:07:14.218Z,25.67
2023-02-06T12:08:48.794Z,25.87
2023-02-06T12:10:23.470Z,21.27
2023-02-06T12:12:00.093Z,21.97
2023-02-06T12:13:36.557Z,23.90
2023-02-06T12:15:45.559Z,23.23
2023-02-06T12:17:17.008Z,21.58
2023-02-06T12:18:51.689Z,21.50
2023-02-06T12:20:28.569Z,22.00
2023-02-06T12:22:04.661Z,18.70
2023-02-06T12:23:40.105Z,19.43
2023-02-06T12:25:23.628Z,18.40
2023-02-06T12:26:57.552Z,23.50
2023-02-06T12:28:32.945Z,23.37
2023-02-06T12:30:09.510Z,19.05
2023-02-06T12:31:45.651Z,21.27
2023-02-06T12:33:19.889Z,17.13
2023-02-06T12:34:54.497Z,17.97
2023-02-06T12:36:35.812Z,20.83
2023-02-06T12:38:14.795Z,21.85
2023-02-06T12:39:48.185Z,20.63
2023-02-06T12:41:27.505Z,20.40
2023-02-06T12:43:03.373Z,19.33
2023-02-06T12:44:38.950Z,21.40
2023-02-06T12:46:14.653Z,24.10
2023-02-06T12:47:51.593Z,21.03
2023-02-06T12:49:26.727Z,21.30
2023-02-06T12:51:07.725Z,20.25
2023-02-06T12:52:44.765Z,22.07
2023-02-06T12:54:20.900Z,18.30
2023-02-06T12:55:56.609Z,19.50
2023-02-06T12:57:31.243Z,20.67
2023-02-06T12:59:12.643Z,20.63
2023-02-06T13:00:49.294Z,18.70
2023-02-06T13:02:25.966Z,16.90
2023-02-06T13:04:00.736Z,17.63
2023-02-06T13:05:36.289Z,15.43
2023-02-06T13:07:11.243Z,16.70
2023-02-06T13:08:47.706Z,19.27
2023-02-06T13:10:22.486Z,17.77
2023-02-06T13:12:07.968Z,18.57
2023-02-06T13:13:42.738Z,21.50
2023-02-06T13:15:22.199Z,17.10
2023-02-06T13:16:57.496Z,15.17
2023-02-06T13:18:38.308Z,17.10
2023-02-06T13:20:12.986Z,18.00
2023-02-06T13:21:52.161Z,19.00
2023-02-06T13:23:25.606Z,15.00
2023-02-06T13:25:00.321Z,15.60
2023-02-06T13:26:52.562Z,14.90
2023-02-06T13:28:42.261Z,14.30
2023-02-06T13:30:39.383Z,17.67
2023-02-06T13:32:31.686Z,15.17
2023-02-06T13:34:08.981Z,13.53
2023-02-06T13:35:55.807Z,16.43
2023-02-06T13:37:34.355Z,16.47
2023-02-06T13:39:15.175Z,13.57
2023-02-06T13:40:50.078Z,15.50
2023-02-06T13:42:32.892Z,12.43
2023-02-06T13:44:07.341Z,15.03
2023-02-06T13:45:43.883Z,15.57
2023-02-06T13:47:34.566Z,13.10
2023-02-06T13:49:23.488Z,12.83
2023-02-06T13:51:16.812Z,11.87
2023-02-06T13:52:54.301Z,13.90
2023-02-06T13:54:50.705Z,14.77
2023-02-06T13:56:38.742Z,12.33
2023-02-06T13:58:21.149Z,10.40
2023-02-06T13:59:56.349Z,11.60
2023-02-06T14:01:30.990Z,11.87
2023-02-06T14:03:07.988Z,10.43
2023-02-06T14:04:42.224Z,12.33
2023-02-06T14:06:27.072Z,13.00
2023-02-06T14:08:18.464Z,11.10
2023-02-06T14:10:22.174Z,14.70
2023-02-06T14:12:19.180Z,11.63
2023-02-06T14:14:02.250Z,11.13
2023-02-06T14:15:40.415Z,11.60
2023-02-06T14:17:18.591Z,11.67
2023-02-06T14:18:54.575Z,10.30
2023-02-06T14:20:35.144Z,11.70
2023-02-06T14:22:14.631Z,13.73
2023-02-06T14:23:59.244Z,13.05
2023-02-06T14:25:41.954Z,14.07
2023-02-06T14:27:24.027Z,11.93
2023-02-06T14:29:03.001Z,12.70
2023-02-06T14:30:41.639Z,14.17
2023-02-06T14:32:25.094Z,13.43
2023-02-06T14:34:05.944Z,15.07
2023-02-06T14:35:49.151Z,11.33
2023-02-06T14:37:30.855Z,12.07
2023-02-06T14:39:20.234Z,12.27
2023-02-06T14:40:56.482Z,12.75
2023-02-06T14:42:34.409Z,11.40
2023-02-06T14:44:13.580Z,13.13
2023-02-06T14:46:05.651Z,12.80
2023-02-06T14:47:42.682Z,12.17
2023-02-06T14:49:18.733Z,13.23
2023-02-06T14:50:56.323Z,13.50
2023-02-06T14:52:33.306Z,10.13
2023-02-06T14:54:07.535Z,12.13
2023-02-06T14:55:41.894Z,12.60
2023-02-06T14:57:18.251Z,12.37
2023-02-06T14:58:53.181Z,10.80
2023-02-06T15:00:27.021Z,11.93
2023-02-06T15:02:02.276Z,10.90
2023-02-06T15:03:35.739Z,11.07
2023-02-06T15:05:09.525Z,10.97
2023-02-06T15:06:44.988Z,12.33
2023-02-06T15:08:19.349Z,12.67
2023-02-06T15:10:03.696Z,11.67
2023-02-06T15:11:37.316Z,11.40
2023-02-06T15:13:20.846Z,13.27
2023-02-06T15:14:56.680Z,16.23
2023-02-06T15:16:30.946Z,14.67
2023-02-06T15:18:05.617Z,11.35
2023-02-06T15:19:39.020Z,11.18
2023-02-06T15:21:14.411Z,11.35
2023-02-06T15:22:47.935Z,15.73
2023-02-06T15:24:37.419Z,13.82
2023-02-06T15:26:15.998Z,14.05
2023-02-06T15:27:49.640Z,14.85
2023-02-06T15:29:24.354Z,14.48
2023-02-06T15:31:00.299Z,14.45
2023-02-06T15:32:37.754Z,16.85
2023-02-06T15:34:17.430Z,16.73
2023-02-06T15:35:53.131Z,16.90
2023-02-06T15:37:29.233Z,15.80
2023-02-06T15:39:03.339Z,16.48
2023-02-06T15:40:39.016Z,14.48
2023-02-06T15:42:12.494Z,14.20
2023-02-06T15:43:46.883Z,15.48
2023-02-06T15:45:22.811Z,16.50
2023-02-06T15:46:58.629Z,13.93
2023-02-06T15:48:35.452Z,16.05
2023-02-06T15:50:11.296Z,15.45
2023-02-06T15:51:52.459Z,13.50
2023-02-06T15:53:36.065Z,14.70
2023-02-06T15:55:09.675Z,15.45
2023-02-06T15:56:44.082Z,12.48
2023-02-06T15:58:17.614Z,15.00
2023-02-06T15:59:51.043Z,14.43
2023-02-06T16:01:24.500Z,14.02
2023-02-06T16:03:02.696Z,17.67
2023-02-06T16:04:36.896Z,13.00
2023-02-06T16:06:15.371Z,14.45
2023-02-06T16:07:51.261Z,17.55
2023-02-06T16:09:24.760Z,14.13
2023-02-06T16:10:59.875Z,13.30
2023-02-06T16:12:34.850Z,13.93
2023-02-06T16:14:08.469Z,14.70
2023-02-06T16:15:42.028Z,15.15
2023-02-06T16:17:33.048Z,13.90
2023-02-06T16:19:27.773Z,14.00
2023-02-06T16:21:15.059Z,18.35
2023-02-06T16:22:48.495Z,17.98
2023-02-06T16:24:22.690Z,19.65
2023-02-06T16:26:03.724Z,19.48
2023-02-06T16:27:37.149Z,19.45
2023-02-06T16:29:18.290Z,19.45
2023-02-06T16:30:55.776Z,20.80
2023-02-06T16:32:31.441Z,19.73
2023-02-06T16:34:20.368Z,26.10
2023-02-06T16:35:55.106Z,23.73
2023-02-06T16:37:29.334Z,22.73
2023-02-06T16:39:04.867Z,24.88
2023-02-06T16:40:38.696Z,24.08
2023-02-06T16:42:14.095Z,27.00
2023-02-06T16:43:47.524Z,23.77
2023-02-06T16:45:22.326Z,19.67
2023-02-06T16:46:55.801Z,17.83
2023-02-06T16:48:29.249Z,23.83
2023-02-06T16:50:02.599Z,22.45
2023-02-06T16:51:37.364Z,24.02
2023-02-06T16:53:15.482Z,20.52
2023-02-06T16:54:48.973Z,20.98
2023-02-06T16:56:23.457Z,25.90
2023-02-06T16:57:58.628Z,19.33
2023-02-06T16:59:32.265Z,20.67
2023-02-06T17:01:08.492Z,19.70
2023-02-06T17:02:41.989Z,20.40
2023-02-06T17:04:15.395Z,19.75
2023-02-06T17:05:50.152Z,22.65
2023-02-06T17:07:26.142Z,21.77
2023-02-06T17:09:03.369Z,18.25
2023-02-06T17:10:37.090Z,21.10
2023-02-06T17:12:13.520Z,18.77
2023-02-06T17:13:46.890Z,20.10
2023-02-06T17:15:20.653Z,23.73
2023-02-06T17:16:54.070Z,23.30
2023-02-06T17:18:27.757Z,20.73
2023-02-06T17:20:01.118Z,19.95
2023-02-06T17:21:34.868Z,19.42
2023-02-06T17:23:10.945Z,20.73
2023-02-06T17:24:44.394Z,19.60
2023-02-06T17:26:19.065Z,22.35
2023-02-06T17:27:52.450Z,19.73
2023-02-06T17:29:26.176Z,19.95
2023-02-06T17:30:59.644Z,20.38
2023-02-06T17:32:33.334Z,19.40
2023-02-06T17:34:06.801Z,19.67
2023-02-06T17:35:40.187Z,21.05
2023-02-06T17:37:20.683Z,19.50
2023-02-06T17:38:58.815Z,21.13
2023-02-06T17:40:33.910Z,21.48
2023-02-06T17:42:07.596Z,21.00
2023-02-06T17:43:40.995Z,18.70
2023-02-06T17:45:14.375Z,17.92
2023-02-06T17:46:48.934Z,20.10
2023-02-06T17:48:22.340Z,20.90
2023-02-06T17:49:55.737Z,20.83
2023-02-06T17:51:29.136Z,23.23
2023-02-06T17:53:03.676Z,20.30
2023-02-06T17:54:38.403Z,21.58
2023-02-06T17:56:13.152Z,23.05
2023-02-06T17:57:46.537Z,22.05
2023-02-06T17:59:20.112Z,25.52
2023-02-06T18:00:53.616Z,22.83
2023-02-06T18:02:27.061Z,24.13
2023-02-06T18:04:00.923Z,24.67
2023-02-06T18:05:34.838Z,23.10
2023-02-06T18:07:08.408Z,21.63
2023-02-06T18:08:42.024Z,22.33
2023-02-06T18:10:17.111Z,22.27
2023-02-06T18:11:50.525Z,24.77
2023-02-06T18:13:24.456Z,23.35
2023-02-06T18:14:57.918Z,22.15
2023-02-06T18:16:31.814Z,23.98
2023-02-06T18:18:05.657Z,24.80
2023-02-06T18:19:42.318Z,28.38
2023-02-06T18:21:19.157Z,25.00
2023-02-06T18:22:52.813Z,24.52
2023-02-06T18:24:26.181Z,27.00
2023-02-06T18:26:03.898Z,24.30
2023-02-06T18:27:37.325Z,23.50
2023-02-06T18:29:10.813Z,25.42
2023-02-06T18:30:44.229Z,24.48
2023-02-06T18:32:17.629Z,25.63
2023-02-06T18:33:51.007Z,24.80
2023-02-06T18:35:24.502Z,23.02
2023-02-06T18:36:58.260Z,24.10
2023-02-06T18:38:31.633Z,20.48
2023-02-06T18:40:05.560Z,21.55
2023-02-06T18:41:58.236Z,22.60
2023-02-06T18:43:31.697Z,21.05
2023-02-06T18:45:05.134Z,24.05
2023-02-06T18:46:39.110Z,21.77
2023-02-06T18:48:14.086Z,25.98
2023-02-06T18:49:47.505Z,26.65
2023-02-06T18:51:20.892Z,24.33
2023-02-06T18:52:54.340Z,25.30
2023-02-06T18:54:28.172Z,23.58
2023-02-06T18:56:01.822Z,24.75
2023-02-06T18:57:36.666Z,26.90
2023-02-06T18:59:10.105Z,32.38
2023-02-06T19:00:43.521Z,25.80
2023-02-06T19:02:17.003Z,25.90
2023-02-06T19:03:50.904Z,24.27
2023-02-06T19:05:24.281Z,26.50
2023-02-06T19:06:57.647Z,26.48
2023-02-06T19:08:31.040Z,26.85
2023-02-06T19:10:05.609Z,28.33
2023-02-06T19:11:39.245Z,25.80
2023-02-06T19:13:13.976Z,29.70
2023-02-06T19:14:47.358Z,26.10
2023-02-06T19:16:21.668Z,28.10
2023-02-06T19:17:55.133Z,25.30
2023-02-06T19:19:28.520Z,27.02
2023-02-06T19:21:02.001Z,26.08
2023-02-06T19:22:35.832Z,26.50
2023-02-06T19:24:09.709Z,25.80
2023-02-06T19:25:43.079Z,26.33
2023-02-06T19:27:16.528Z,27.25
2023-02-06T19:28:51.470Z,28.63
2023-02-06T19:30:24.952Z,32.33
2023-02-06T19:31:58.318Z,28.85
2023-02-06T19:33:32.644Z,26.83
2023-02-06T19:35:06.426Z,28.33
2023-02-06T19:36:39.857Z,26.90
2023-02-06T19:38:13.293Z,27.52
2023-02-06T19:39:46.715Z,27.40
2023-02-06T19:41:21.388Z,26.98
2023-02-06T19:42:54.820Z,28.38
2023-02-06T19:44:29.653Z,28.55
2023-02-06T19:46:04.109Z,25.83
2023-02-06T19:47:37.546Z,26.00
2023-02-06T19:49:12.707Z,31.35
2023-02-06T19:50:46.104Z,30.38
2023-02-06T19:52:19.594Z,28.35
2023-02-06T19:53:54.101Z,26.33
2023-02-06T19:55:27.494Z,26.63
2023-02-06T19:57:01.642Z,31.73
2023-02-06T19:58:35.028Z,28.75
2023-02-06T20:00:10.817Z,30.98
2023-02-06T20:01:44.213Z,35.92
2023-02-06T20:03:17.648Z,31.33
2023-02-06T20:04:51.028Z,28.10
2023-02-06T20:06:24.902Z,26.90
2023-02-06T20:07:58.270Z,30.05
2023-02-06T20:09:31.917Z,28.42
2023-02-06T20:11:05.981Z,31.83
2023-02-06T20:12:39.600Z,32.35
2023-02-06T20:14:13.455Z,33.08
2023-02-06T20:15:48.306Z,34.35
2023-02-06T20:17:22.715Z,36.40
2023-02-06T20:18:56.636Z,35.03
2023-02-06T20:20:30.300Z,36.10
2023-02-06T20:22:04.479Z,36.45
2023-02-06T20:23:40.735Z,38.00
2023-02-06T20:25:14.146Z,34.00
2023-02-06T20:26:47.816Z,34.75
2023-02-06T20:28:21.290Z,39.38
2023-02-06T20:29:54.718Z,33.30
2023-02-06T20:31:30.344Z,35.70
2023-02-06T20:33:03.813Z,35.38
2023-02-06T20:34:37.352Z,38.88
2023-02-06T20:36:11.794Z,37.45